sensor_id;sensor_type;location;lat;lon;timestamp;temperature;humidity
75987;DHT22;64671;44.726;37.764;2023-11-21T00:00:38;4.62;82.27
75987;DHT22;64671;44.726;37.764;2023-11-21T00:01:41;4.63;82.05
75987;DHT22;64671;44.726;37.764;2023-11-21T00:02:44;4.63;81.63
75987;DHT22;64671;44.726;37.764;2023-11-21T00:03:50;4.61;82.13
75987;DHT22;64671;44.726;37.764;2023-11-21T00:04:53;4.61;82.34
75987;DHT22;64671;44.726;37.764;2023-11-21T00:05:56;4.61;81.96
75987;DHT22;64671;44.726;37.764;2023-11-21T00:06:59;4.60;81.88
75987;DHT22;64671;44.726;37.764;2023-11-21T00:08:02;4.59;81.93
75987;DHT22;64671;44.726;37.764;2023-11-21T00:09:04;4.60;81.87
75987;DHT22;64671;44.726;37.764;2023-11-21T00:10:08;4.61;82.17
75987;DHT22;64671;44.726;37.764;2023-11-21T00:11:12;4.62;82.35
75987;DHT22;64671;44.726;37.764;2023-11-21T00:12:15;4.62;82.64
75987;DHT22;64671;44.726;37.764;2023-11-21T00:13:18;4.64;82.62
75987;DHT22;64671;44.726;37.764;2023-11-21T00:14:21;4.64;82.51
75987;DHT22;64671;44.726;37.764;2023-11-21T00:15:24;4.67;82.50
75987;DHT22;64671;44.726;37.764;2023-11-21T00:16:27;4.68;82.20
75987;DHT22;64671;44.726;37.764;2023-11-21T00:17:30;4.68;82.03
75987;DHT22;64671;44.726;37.764;2023-11-21T00:18:33;4.68;82.31
75987;DHT22;64671;44.726;37.764;2023-11-21T00:19:35;4.68;82.56
75987;DHT22;64671;44.726;37.764;2023-11-21T00:20:38;4.69;82.17
75987;DHT22;64671;44.726;37.764;2023-11-21T00:21:42;4.69;82.29
75987;DHT22;64671;44.726;37.764;2023-11-21T00:22:46;4.69;82.31
75987;DHT22;64671;44.726;37.764;2023-11-21T00:23:50;4.73;81.76
75987;DHT22;64671;44.726;37.764;2023-11-21T00:24:53;4.72;81.92
75987;DHT22;64671;44.726;37.764;2023-11-21T00:25:56;4.72;81.45
75987;DHT22;64671;44.726;37.764;2023-11-21T00:26:59;4.74;81.53
75987;DHT22;64671;44.726;37.764;2023-11-21T00:28:02;4.74;81.75
75987;DHT22;64671;44.726;37.764;2023-11-21T00:29:05;4.76;82.04
75987;DHT22;64671;44.726;37.764;2023-11-21T00:30:11;4.78;82.10
75987;DHT22;64671;44.726;37.764;2023-11-21T00:31:14;4.80;81.85
75987;DHT22;64671;44.726;37.764;2023-11-21T00:32:17;4.81;81.50
75987;DHT22;64671;44.726;37.764;2023-11-21T00:33:19;4.82;81.34
75987;DHT22;64671;44.726;37.764;2023-11-21T00:34:22;4.81;81.07
75987;DHT22;64671;44.726;37.764;2023-11-21T00:35:25;4.86;81.32
75987;DHT22;64671;44.726;37.764;2023-11-21T00:36:28;4.84;81.27
75987;DHT22;64671;44.726;37.764;2023-11-21T00:37:31;4.84;81.19
75987;DHT22;64671;44.726;37.764;2023-11-21T00:38:36;4.82;81.11
75987;DHT22;64671;44.726;37.764;2023-11-21T00:39:39;4.86;81.88
75987;DHT22;64671;44.726;37.764;2023-11-21T00:40:42;4.86;81.57
75987;DHT22;64671;44.726;37.764;2023-11-21T00:41:45;4.84;81.25
75987;DHT22;64671;44.726;37.764;2023-11-21T00:42:48;4.84;81.64
75987;DHT22;64671;44.726;37.764;2023-11-21T00:43:50;4.83;81.51
75987;DHT22;64671;44.726;37.764;2023-11-21T00:44:53;4.81;81.32
75987;DHT22;64671;44.726;37.764;2023-11-21T00:45:56;4.81;81.55
75987;DHT22;64671;44.726;37.764;2023-11-21T00:46:59;4.80;82.00
75987;DHT22;64671;44.726;37.764;2023-11-21T00:48:03;4.82;82.05
75987;DHT22;64671;44.726;37.764;2023-11-21T00:49:07;4.82;81.88
75987;DHT22;64671;44.726;37.764;2023-11-21T00:50:10;4.81;81.94
75987;DHT22;64671;44.726;37.764;2023-11-21T00:51:13;4.80;82.01
75987;DHT22;64671;44.726;37.764;2023-11-21T00:52:16;4.82;82.33
75987;DHT22;64671;44.726;37.764;2023-11-21T00:53:19;4.84;82.58
75987;DHT22;64671;44.726;37.764;2023-11-21T00:54:21;4.83;82.20
75987;DHT22;64671;44.726;37.764;2023-11-21T00:55:25;4.87;82.49
75987;DHT22;64671;44.726;37.764;2023-11-21T00:56:30;4.86;82.50
75987;DHT22;64671;44.726;37.764;2023-11-21T00:57:35;4.87;82.20
75987;DHT22;64671;44.726;37.764;2023-11-21T00:58:38;4.89;82.52
75987;DHT22;64671;44.726;37.764;2023-11-21T00:59:42;4.91;82.28
75987;DHT22;64671;44.726;37.764;2023-11-21T01:00:44;4.89;82.08
75987;DHT22;64671;44.726;37.764;2023-11-21T01:01:47;4.90;82.35
75987;DHT22;64671;44.726;37.764;2023-11-21T01:02:51;4.90;82.02
75987;DHT22;64671;44.726;37.764;2023-11-21T01:03:54;4.91;82.38
75987;DHT22;64671;44.726;37.764;2023-11-21T01:04:57;4.91;82.47
75987;DHT22;64671;44.726;37.764;2023-11-21T01:06:00;4.91;82.62
75987;DHT22;64671;44.726;37.764;2023-11-21T01:07:03;4.90;82.36
75987;DHT22;64671;44.726;37.764;2023-11-21T01:08:06;4.92;82.66
75987;DHT22;64671;44.726;37.764;2023-11-21T01:09:09;4.88;81.57
75987;DHT22;64671;44.726;37.764;2023-11-21T01:10:12;4.87;82.21
75987;DHT22;64671;44.726;37.764;2023-11-21T01:11:15;4.87;82.17
75987;DHT22;64671;44.726;37.764;2023-11-21T01:12:17;4.84;82.12
75987;DHT22;64671;44.726;37.764;2023-11-21T01:13:21;4.83;81.81
75987;DHT22;64671;44.726;37.764;2023-11-21T01:14:24;4.83;81.83
75987;DHT22;64671;44.726;37.764;2023-11-21T01:15:29;4.84;81.97
75987;DHT22;64671;44.726;37.764;2023-11-21T01:16:32;4.83;82.29
75987;DHT22;64671;44.726;37.764;2023-11-21T01:17:35;4.82;82.28
75987;DHT22;64671;44.726;37.764;2023-11-21T01:18:38;4.84;82.03
75987;DHT22;64671;44.726;37.764;2023-11-21T01:19:41;4.84;82.36
75987;DHT22;64671;44.726;37.764;2023-11-21T01:20:47;4.88;82.08
75987;DHT22;64671;44.726;37.764;2023-11-21T01:21:49;4.88;82.48
75987;DHT22;64671;44.726;37.764;2023-11-21T01:22:52;4.88;81.93
75987;DHT22;64671;44.726;37.764;2023-11-21T01:23:56;4.88;82.17
75987;DHT22;64671;44.726;37.764;2023-11-21T01:24:59;4.84;81.97
75987;DHT22;64671;44.726;37.764;2023-11-21T01:26:01;4.86;81.95
75987;DHT22;64671;44.726;37.764;2023-11-21T01:27:05;4.84;82.25
75987;DHT22;64671;44.726;37.764;2023-11-21T01:28:09;4.88;82.11
75987;DHT22;64671;44.726;37.764;2023-11-21T01:29:13;4.86;81.97
75987;DHT22;64671;44.726;37.764;2023-11-21T01:30:17;4.88;82.26
75987;DHT22;64671;44.726;37.764;2023-11-21T01:31:20;4.86;81.20
75987;DHT22;64671;44.726;37.764;2023-11-21T01:32:23;4.83;81.12
75987;DHT22;64671;44.726;37.764;2023-11-21T01:33:26;4.83;81.46
75987;DHT22;64671;44.726;37.764;2023-11-21T01:34:29;4.87;81.86
75987;DHT22;64671;44.726;37.764;2023-11-21T01:35:33;4.88;81.86
75987;DHT22;64671;44.726;37.764;2023-11-21T01:36:36;4.87;81.81
75987;DHT22;64671;44.726;37.764;2023-11-21T01:37:40;4.87;81.51
75987;DHT22;64671;44.726;37.764;2023-11-21T01:38:43;4.87;81.66
75987;DHT22;64671;44.726;37.764;2023-11-21T01:39:45;4.88;81.33
75987;DHT22;64671;44.726;37.764;2023-11-21T01:40:50;4.91;81.65
75987;DHT22;64671;44.726;37.764;2023-11-21T01:41:53;4.91;81.45
75987;DHT22;64671;44.726;37.764;2023-11-21T01:42:56;4.92;81.44
75987;DHT22;64671;44.726;37.764;2023-11-21T01:44:00;4.95;81.69
75987;DHT22;64671;44.726;37.764;2023-11-21T01:45:03;4.93;82.01
75987;DHT22;64671;44.726;37.764;2023-11-21T01:46:08;4.94;81.72
75987;DHT22;64671;44.726;37.764;2023-11-21T01:47:13;4.96;82.32
75987;DHT22;64671;44.726;37.764;2023-11-21T01:48:16;4.95;81.58
75987;DHT22;64671;44.726;37.764;2023-11-21T01:49:20;4.93;81.54
75987;DHT22;64671;44.726;37.764;2023-11-21T01:50:24;4.92;81.68
75987;DHT22;64671;44.726;37.764;2023-11-21T01:51:27;4.92;81.43
75987;DHT22;64671;44.726;37.764;2023-11-21T01:52:30;4.92;81.49
75987;DHT22;64671;44.726;37.764;2023-11-21T01:53:34;4.92;81.45
75987;DHT22;64671;44.726;37.764;2023-11-21T01:54:37;4.91;81.36
75987;DHT22;64671;44.726;37.764;2023-11-21T01:55:42;4.90;81.75
75987;DHT22;64671;44.726;37.764;2023-11-21T01:56:47;4.90;81.51
75987;DHT22;64671;44.726;37.764;2023-11-21T01:57:50;4.90;81.72
75987;DHT22;64671;44.726;37.764;2023-11-21T01:58:53;4.89;81.65
75987;DHT22;64671;44.726;37.764;2023-11-21T01:59:58;4.89;81.50
75987;DHT22;64671;44.726;37.764;2023-11-21T02:01:13;4.90;81.65
75987;DHT22;64671;44.726;37.764;2023-11-21T02:02:17;4.89;81.61
75987;DHT22;64671;44.726;37.764;2023-11-21T02:03:20;4.89;81.49
75987;DHT22;64671;44.726;37.764;2023-11-21T02:04:23;4.91;81.42
75987;DHT22;64671;44.726;37.764;2023-11-21T02:05:27;4.92;81.86
75987;DHT22;64671;44.726;37.764;2023-11-21T02:06:30;4.92;81.78
75987;DHT22;64671;44.726;37.764;2023-11-21T02:07:34;4.93;81.85
75987;DHT22;64671;44.726;37.764;2023-11-21T02:08:37;4.92;82.04
75987;DHT22;64671;44.726;37.764;2023-11-21T02:09:40;4.93;82.13
75987;DHT22;64671;44.726;37.764;2023-11-21T02:10:45;4.93;81.76
75987;DHT22;64671;44.726;37.764;2023-11-21T02:11:48;4.92;81.90
75987;DHT22;64671;44.726;37.764;2023-11-21T02:12:52;4.92;82.01
75987;DHT22;64671;44.726;37.764;2023-11-21T02:13:58;4.87;81.88
75987;DHT22;64671;44.726;37.764;2023-11-21T02:15:05;4.87;82.20
75987;DHT22;64671;44.726;37.764;2023-11-21T02:16:12;4.88;82.97
75987;DHT22;64671;44.726;37.764;2023-11-21T02:17:16;4.89;82.39
75987;DHT22;64671;44.726;37.764;2023-11-21T02:18:21;4.90;82.45
75987;DHT22;64671;44.726;37.764;2023-11-21T02:19:24;4.91;82.42
75987;DHT22;64671;44.726;37.764;2023-11-21T02:20:32;4.92;82.04
75987;DHT22;64671;44.726;37.764;2023-11-21T02:21:39;4.92;82.14
75987;DHT22;64671;44.726;37.764;2023-11-21T02:22:51;4.94;82.17
75987;DHT22;64671;44.726;37.764;2023-11-21T02:24:01;4.92;81.81
75987;DHT22;64671;44.726;37.764;2023-11-21T02:25:04;4.91;81.81
75987;DHT22;64671;44.726;37.764;2023-11-21T02:26:08;4.92;81.96
75987;DHT22;64671;44.726;37.764;2023-11-21T02:27:13;4.93;82.20
75987;DHT22;64671;44.726;37.764;2023-11-21T02:28:16;4.91;81.92
75987;DHT22;64671;44.726;37.764;2023-11-21T02:29:28;4.92;82.22
75987;DHT22;64671;44.726;37.764;2023-11-21T02:30:31;4.92;82.17
75987;DHT22;64671;44.726;37.764;2023-11-21T02:31:37;4.92;82.33
75987;DHT22;64671;44.726;37.764;2023-11-21T02:32:48;4.91;82.60
75987;DHT22;64671;44.726;37.764;2023-11-21T02:33:51;4.92;82.71
75987;DHT22;64671;44.726;37.764;2023-11-21T02:34:56;4.92;82.28
75987;DHT22;64671;44.726;37.764;2023-11-21T02:36:04;4.91;82.49
75987;DHT22;64671;44.726;37.764;2023-11-21T02:37:08;4.93;82.26
75987;DHT22;64671;44.726;37.764;2023-11-21T02:38:11;4.93;82.57
75987;DHT22;64671;44.726;37.764;2023-11-21T02:39:15;4.95;82.49
75987;DHT22;64671;44.726;37.764;2023-11-21T02:40:19;4.96;82.18
75987;DHT22;64671;44.726;37.764;2023-11-21T02:41:24;4.96;82.46
75987;DHT22;64671;44.726;37.764;2023-11-21T02:42:27;4.93;82.03
75987;DHT22;64671;44.726;37.764;2023-11-21T02:43:30;4.94;82.22
75987;DHT22;64671;44.726;37.764;2023-11-21T02:44:34;4.95;82.19
75987;DHT22;64671;44.726;37.764;2023-11-21T02:45:37;4.96;82.59
75987;DHT22;64671;44.726;37.764;2023-11-21T02:46:41;4.97;82.29
75987;DHT22;64671;44.726;37.764;2023-11-21T02:47:44;4.97;82.24
75987;DHT22;64671;44.726;37.764;2023-11-21T02:48:49;4.96;81.86
75987;DHT22;64671;44.726;37.764;2023-11-21T02:49:53;4.96;82.26
75987;DHT22;64671;44.726;37.764;2023-11-21T02:50:56;4.95;82.28
75987;DHT22;64671;44.726;37.764;2023-11-21T02:52:00;4.97;82.41
75987;DHT22;64671;44.726;37.764;2023-11-21T02:53:04;4.96;82.49
75987;DHT22;64671;44.726;37.764;2023-11-21T02:54:08;4.96;82.36
75987;DHT22;64671;44.726;37.764;2023-11-21T02:55:12;4.95;82.11
75987;DHT22;64671;44.726;37.764;2023-11-21T02:56:15;4.97;82.60
75987;DHT22;64671;44.726;37.764;2023-11-21T02:57:18;4.94;82.11
75987;DHT22;64671;44.726;37.764;2023-11-21T02:58:21;4.92;81.86
75987;DHT22;64671;44.726;37.764;2023-11-21T02:59:24;4.93;82.14
75987;DHT22;64671;44.726;37.764;2023-11-21T03:00:28;4.95;82.09
75987;DHT22;64671;44.726;37.764;2023-11-21T03:01:31;4.95;82.20
75987;DHT22;64671;44.726;37.764;2023-11-21T03:02:34;4.95;82.67
75987;DHT22;64671;44.726;37.764;2023-11-21T03:03:41;4.98;82.48
75987;DHT22;64671;44.726;37.764;2023-11-21T03:04:44;4.98;82.59
75987;DHT22;64671;44.726;37.764;2023-11-21T03:05:48;4.98;82.23
75987;DHT22;64671;44.726;37.764;2023-11-21T03:06:51;4.98;81.97
75987;DHT22;64671;44.726;37.764;2023-11-21T03:07:54;5.02;82.52
75987;DHT22;64671;44.726;37.764;2023-11-21T03:08:58;5.03;82.36
75987;DHT22;64671;44.726;37.764;2023-11-21T03:10:01;5.03;82.22
75987;DHT22;64671;44.726;37.764;2023-11-21T03:11:04;5.03;82.23
75987;DHT22;64671;44.726;37.764;2023-11-21T03:12:07;5.03;82.05
75987;DHT22;64671;44.726;37.764;2023-11-21T03:13:11;5.06;82.21
75987;DHT22;64671;44.726;37.764;2023-11-21T03:14:14;5.04;82.01
75987;DHT22;64671;44.726;37.764;2023-11-21T03:15:17;5.05;82.17
75987;DHT22;64671;44.726;37.764;2023-11-21T03:16:21;5.06;82.26
75987;DHT22;64671;44.726;37.764;2023-11-21T03:17:24;5.07;82.40
75987;DHT22;64671;44.726;37.764;2023-11-21T03:18:27;5.06;82.03
75987;DHT22;64671;44.726;37.764;2023-11-21T03:19:32;5.05;82.00
75987;DHT22;64671;44.726;37.764;2023-11-21T03:20:35;5.06;82.38
75987;DHT22;64671;44.726;37.764;2023-11-21T03:21:38;5.07;82.52
75987;DHT22;64671;44.726;37.764;2023-11-21T03:22:42;5.09;82.26
75987;DHT22;64671;44.726;37.764;2023-11-21T03:23:45;5.09;82.55
75987;DHT22;64671;44.726;37.764;2023-11-21T03:24:48;5.11;82.39
75987;DHT22;64671;44.726;37.764;2023-11-21T03:25:51;5.08;82.05
75987;DHT22;64671;44.726;37.764;2023-11-21T03:26:55;5.10;82.06
75987;DHT22;64671;44.726;37.764;2023-11-21T03:27:58;5.11;82.03
75987;DHT22;64671;44.726;37.764;2023-11-21T03:29:01;5.13;82.07
75987;DHT22;64671;44.726;37.764;2023-11-21T03:30:04;5.10;81.81
75987;DHT22;64671;44.726;37.764;2023-11-21T03:31:09;5.09;81.95
75987;DHT22;64671;44.726;37.764;2023-11-21T03:32:12;5.10;82.08
75987;DHT22;64671;44.726;37.764;2023-11-21T03:33:16;5.07;81.88
75987;DHT22;64671;44.726;37.764;2023-11-21T03:34:26;5.09;82.26
75987;DHT22;64671;44.726;37.764;2023-11-21T03:35:30;5.10;82.30
75987;DHT22;64671;44.726;37.764;2023-11-21T03:36:33;5.10;82.46
75987;DHT22;64671;44.726;37.764;2023-11-21T03:37:36;5.07;82.01
75987;DHT22;64671;44.726;37.764;2023-11-21T03:38:41;5.08;82.25
75987;DHT22;64671;44.726;37.764;2023-11-21T03:39:44;5.09;82.41
75987;DHT22;64671;44.726;37.764;2023-11-21T03:40:51;5.11;82.52
75987;DHT22;64671;44.726;37.764;2023-11-21T03:41:54;5.12;82.47
75987;DHT22;64671;44.726;37.764;2023-11-21T03:42:57;5.11;82.33
75987;DHT22;64671;44.726;37.764;2023-11-21T03:44:00;5.09;82.17
75987;DHT22;64671;44.726;37.764;2023-11-21T03:45:04;5.09;81.95
75987;DHT22;64671;44.726;37.764;2023-11-21T03:46:08;5.06;82.34
75987;DHT22;64671;44.726;37.764;2023-11-21T03:47:11;5.09;82.42
75987;DHT22;64671;44.726;37.764;2023-11-21T03:48:14;5.10;82.56
75987;DHT22;64671;44.726;37.764;2023-11-21T03:49:18;5.06;82.25
75987;DHT22;64671;44.726;37.764;2023-11-21T03:50:21;5.09;82.21
75987;DHT22;64671;44.726;37.764;2023-11-21T03:51:24;5.07;82.03
75987;DHT22;64671;44.726;37.764;2023-11-21T03:52:27;5.08;82.03
75987;DHT22;64671;44.726;37.764;2023-11-21T03:53:31;5.08;81.89
75987;DHT22;64671;44.726;37.764;2023-11-21T03:54:34;5.08;81.89
75987;DHT22;64671;44.726;37.764;2023-11-21T03:55:38;5.07;81.88
75987;DHT22;64671;44.726;37.764;2023-11-21T03:56:43;5.06;82.01
75987;DHT22;64671;44.726;37.764;2023-11-21T03:57:47;5.09;82.20
75987;DHT22;64671;44.726;37.764;2023-11-21T03:58:50;5.10;82.45
75987;DHT22;64671;44.726;37.764;2023-11-21T03:59:52;5.10;82.02
75987;DHT22;64671;44.726;37.764;2023-11-21T04:00:55;5.08;81.78
75987;DHT22;64671;44.726;37.764;2023-11-21T04:01:58;5.08;81.47
75987;DHT22;64671;44.726;37.764;2023-11-21T04:03:04;5.07;81.59
75987;DHT22;64671;44.726;37.764;2023-11-21T04:04:07;5.08;81.91
75987;DHT22;64671;44.726;37.764;2023-11-21T04:05:10;5.09;82.06
75987;DHT22;64671;44.726;37.764;2023-11-21T04:06:13;5.10;81.90
75987;DHT22;64671;44.726;37.764;2023-11-21T04:07:16;5.09;81.41
75987;DHT22;64671;44.726;37.764;2023-11-21T04:08:20;5.09;81.30
75987;DHT22;64671;44.726;37.764;2023-11-21T04:09:23;5.09;81.14
75987;DHT22;64671;44.726;37.764;2023-11-21T04:10:27;5.09;81.34
75987;DHT22;64671;44.726;37.764;2023-11-21T04:11:31;5.10;81.27
75987;DHT22;64671;44.726;37.764;2023-11-21T04:12:34;5.12;81.52
75987;DHT22;64671;44.726;37.764;2023-11-21T04:13:41;5.11;81.69
75987;DHT22;64671;44.726;37.764;2023-11-21T04:14:45;5.07;80.61
75987;DHT22;64671;44.726;37.764;2023-11-21T04:15:48;5.09;81.31
75987;DHT22;64671;44.726;37.764;2023-11-21T04:16:51;5.08;81.02
75987;DHT22;64671;44.726;37.764;2023-11-21T04:17:53;5.09;81.23
75987;DHT22;64671;44.726;37.764;2023-11-21T04:18:56;5.08;80.75
75987;DHT22;64671;44.726;37.764;2023-11-21T04:19:59;5.07;80.71
75987;DHT22;64671;44.726;37.764;2023-11-21T04:21:02;5.10;81.07
75987;DHT22;64671;44.726;37.764;2023-11-21T04:22:06;5.11;81.17
75987;DHT22;64671;44.726;37.764;2023-11-21T04:23:09;5.12;81.19
75987;DHT22;64671;44.726;37.764;2023-11-21T04:24:12;5.15;81.23
75987;DHT22;64671;44.726;37.764;2023-11-21T04:25:16;5.16;81.21
75987;DHT22;64671;44.726;37.764;2023-11-21T04:26:19;5.16;81.24
75987;DHT22;64671;44.726;37.764;2023-11-21T04:27:22;5.18;81.32
75987;DHT22;64671;44.726;37.764;2023-11-21T04:28:25;5.20;81.31
75987;DHT22;64671;44.726;37.764;2023-11-21T04:29:28;5.19;80.98
75987;DHT22;64671;44.726;37.764;2023-11-21T04:30:32;5.18;81.05
75987;DHT22;64671;44.726;37.764;2023-11-21T04:31:35;5.16;80.22
75987;DHT22;64671;44.726;37.764;2023-11-21T04:32:38;5.17;81.17
75987;DHT22;64671;44.726;37.764;2023-11-21T04:33:42;5.19;81.55
75987;DHT22;64671;44.726;37.764;2023-11-21T04:34:44;5.19;81.59
75987;DHT22;64671;44.726;37.764;2023-11-21T04:35:47;5.21;81.29
75987;DHT22;64671;44.726;37.764;2023-11-21T04:36:50;5.21;80.75
75987;DHT22;64671;44.726;37.764;2023-11-21T04:37:53;5.22;81.10
75987;DHT22;64671;44.726;37.764;2023-11-21T04:38:56;5.22;81.17
75987;DHT22;64671;44.726;37.764;2023-11-21T04:39:59;5.22;80.96
75987;DHT22;64671;44.726;37.764;2023-11-21T04:41:03;5.18;80.78
75987;DHT22;64671;44.726;37.764;2023-11-21T04:42:06;5.19;80.91
75987;DHT22;64671;44.726;37.764;2023-11-21T04:43:09;5.19;80.83
75987;DHT22;64671;44.726;37.764;2023-11-21T04:44:11;5.21;81.12
75987;DHT22;64671;44.726;37.764;2023-11-21T04:45:14;5.23;81.38
75987;DHT22;64671;44.726;37.764;2023-11-21T04:46:18;5.24;81.75
75987;DHT22;64671;44.726;37.764;2023-11-21T04:47:21;5.25;81.26
75987;DHT22;64671;44.726;37.764;2023-11-21T04:48:24;5.26;81.01
75987;DHT22;64671;44.726;37.764;2023-11-21T04:49:28;5.24;80.67
75987;DHT22;64671;44.726;37.764;2023-11-21T04:50:31;5.22;80.72
75987;DHT22;64671;44.726;37.764;2023-11-21T04:51:34;5.22;80.93
75987;DHT22;64671;44.726;37.764;2023-11-21T04:52:37;5.22;81.17
75987;DHT22;64671;44.726;37.764;2023-11-21T04:53:40;5.23;81.20
75987;DHT22;64671;44.726;37.764;2023-11-21T04:54:43;5.24;81.44
75987;DHT22;64671;44.726;37.764;2023-11-21T04:55:46;5.24;81.04
75987;DHT22;64671;44.726;37.764;2023-11-21T04:56:51;5.25;81.01
75987;DHT22;64671;44.726;37.764;2023-11-21T04:57:54;5.24;81.36
75987;DHT22;64671;44.726;37.764;2023-11-21T04:58:57;5.27;81.18
75987;DHT22;64671;44.726;37.764;2023-11-21T05:00:00;5.26;80.88
75987;DHT22;64671;44.726;37.764;2023-11-21T05:01:04;5.26;81.16
75987;DHT22;64671;44.726;37.764;2023-11-21T05:02:08;5.28;81.22
75987;DHT22;64671;44.726;37.764;2023-11-21T05:03:13;5.27;80.92
75987;DHT22;64671;44.726;37.764;2023-11-21T05:04:16;5.31;81.48
75987;DHT22;64671;44.726;37.764;2023-11-21T05:05:19;5.33;81.91
75987;DHT22;64671;44.726;37.764;2023-11-21T05:06:22;5.33;81.27
75987;DHT22;64671;44.726;37.764;2023-11-21T05:07:26;5.34;81.09
75987;DHT22;64671;44.726;37.764;2023-11-21T05:08:33;5.31;81.12
75987;DHT22;64671;44.726;37.764;2023-11-21T05:09:36;5.32;80.89
75987;DHT22;64671;44.726;37.764;2023-11-21T05:10:43;5.30;81.01
75987;DHT22;64671;44.726;37.764;2023-11-21T05:11:46;5.30;80.88
75987;DHT22;64671;44.726;37.764;2023-11-21T05:12:50;5.28;81.03
75987;DHT22;64671;44.726;37.764;2023-11-21T05:13:53;5.26;81.46
75987;DHT22;64671;44.726;37.764;2023-11-21T05:14:58;5.26;81.54
75987;DHT22;64671;44.726;37.764;2023-11-21T05:16:02;5.26;81.42
75987;DHT22;64671;44.726;37.764;2023-11-21T05:17:06;5.26;81.55
75987;DHT22;64671;44.726;37.764;2023-11-21T05:18:10;5.27;81.67
75987;DHT22;64671;44.726;37.764;2023-11-21T05:19:14;5.23;81.10
75987;DHT22;64671;44.726;37.764;2023-11-21T05:20:17;5.23;81.27
75987;DHT22;64671;44.726;37.764;2023-11-21T05:21:23;5.22;81.27
75987;DHT22;64671;44.726;37.764;2023-11-21T05:22:27;5.23;81.41
75987;DHT22;64671;44.726;37.764;2023-11-21T05:23:30;5.25;81.46
75987;DHT22;64671;44.726;37.764;2023-11-21T05:24:33;5.24;81.56
75987;DHT22;64671;44.726;37.764;2023-11-21T05:25:37;5.26;81.28
75987;DHT22;64671;44.726;37.764;2023-11-21T05:26:41;5.25;80.98
75987;DHT22;64671;44.726;37.764;2023-11-21T05:27:46;5.26;81.27
75987;DHT22;64671;44.726;37.764;2023-11-21T05:28:49;5.26;81.29
75987;DHT22;64671;44.726;37.764;2023-11-21T05:29:52;5.25;81.14
75987;DHT22;64671;44.726;37.764;2023-11-21T05:30:56;5.23;81.35
75987;DHT22;64671;44.726;37.764;2023-11-21T05:32:05;5.25;81.72
75987;DHT22;64671;44.726;37.764;2023-11-21T05:33:08;5.27;81.97
75987;DHT22;64671;44.726;37.764;2023-11-21T05:34:11;5.28;81.32
75987;DHT22;64671;44.726;37.764;2023-11-21T05:35:18;5.28;81.43
75987;DHT22;64671;44.726;37.764;2023-11-21T05:36:21;5.30;81.55
75987;DHT22;64671;44.726;37.764;2023-11-21T05:37:24;5.31;81.78
75987;DHT22;64671;44.726;37.764;2023-11-21T05:38:29;5.31;81.68
75987;DHT22;64671;44.726;37.764;2023-11-21T05:39:32;5.31;81.40
75987;DHT22;64671;44.726;37.764;2023-11-21T05:40:36;5.30;81.19
75987;DHT22;64671;44.726;37.764;2023-11-21T05:41:39;5.31;81.65
75987;DHT22;64671;44.726;37.764;2023-11-21T05:42:44;5.32;81.73
75987;DHT22;64671;44.726;37.764;2023-11-21T05:43:48;5.35;81.88
75987;DHT22;64671;44.726;37.764;2023-11-21T05:44:51;5.38;81.39
75987;DHT22;64671;44.726;37.764;2023-11-21T05:45:54;5.37;80.88
75987;DHT22;64671;44.726;37.764;2023-11-21T05:46:57;5.38;81.04
75987;DHT22;64671;44.726;37.764;2023-11-21T05:48:01;5.39;81.10
75987;DHT22;64671;44.726;37.764;2023-11-21T05:49:05;5.38;81.00
75987;DHT22;64671;44.726;37.764;2023-11-21T05:50:09;5.39;81.08
75987;DHT22;64671;44.726;37.764;2023-11-21T05:51:17;5.41;81.26
75987;DHT22;64671;44.726;37.764;2023-11-21T05:52:20;5.40;80.93
75987;DHT22;64671;44.726;37.764;2023-11-21T05:53:23;5.40;80.95
75987;DHT22;64671;44.726;37.764;2023-11-21T05:54:26;5.40;81.04
75987;DHT22;64671;44.726;37.764;2023-11-21T05:55:29;5.42;80.98
75987;DHT22;64671;44.726;37.764;2023-11-21T05:56:32;5.42;81.40
75987;DHT22;64671;44.726;37.764;2023-11-21T05:57:36;5.41;80.95
75987;DHT22;64671;44.726;37.764;2023-11-21T05:58:39;5.40;80.78
75987;DHT22;64671;44.726;37.764;2023-11-21T05:59:42;5.40;81.04
75987;DHT22;64671;44.726;37.764;2023-11-21T06:00:45;5.41;81.33
75987;DHT22;64671;44.726;37.764;2023-11-21T06:01:48;5.43;81.39
75987;DHT22;64671;44.726;37.764;2023-11-21T06:02:55;5.46;81.58
75987;DHT22;64671;44.726;37.764;2023-11-21T06:03:59;5.43;81.22
75987;DHT22;64671;44.726;37.764;2023-11-21T06:05:03;5.45;81.03
75987;DHT22;64671;44.726;37.764;2023-11-21T06:06:07;5.47;81.48
75987;DHT22;64671;44.726;37.764;2023-11-21T06:07:10;5.47;81.53
75987;DHT22;64671;44.726;37.764;2023-11-21T06:08:13;5.47;81.32
75987;DHT22;64671;44.726;37.764;2023-11-21T06:09:16;5.46;81.27
75987;DHT22;64671;44.726;37.764;2023-11-21T06:10:22;5.47;80.75
75987;DHT22;64671;44.726;37.764;2023-11-21T06:11:26;5.46;80.89
75987;DHT22;64671;44.726;37.764;2023-11-21T06:12:29;5.43;80.67
75987;DHT22;64671;44.726;37.764;2023-11-21T06:13:33;5.43;80.65
75987;DHT22;64671;44.726;37.764;2023-11-21T06:14:37;5.42;80.66
75987;DHT22;64671;44.726;37.764;2023-11-21T06:15:40;5.42;79.98
75987;DHT22;64671;44.726;37.764;2023-11-21T06:16:43;5.40;80.60
75987;DHT22;64671;44.726;37.764;2023-11-21T06:17:48;5.40;79.78
75987;DHT22;64671;44.726;37.764;2023-11-21T06:18:57;5.42;80.30
75987;DHT22;64671;44.726;37.764;2023-11-21T06:20:00;5.46;80.65
75987;DHT22;64671;44.726;37.764;2023-11-21T06:21:09;5.46;79.77
75987;DHT22;64671;44.726;37.764;2023-11-21T06:22:13;5.46;80.05
75987;DHT22;64671;44.726;37.764;2023-11-21T06:23:16;5.47;80.53
75987;DHT22;64671;44.726;37.764;2023-11-21T06:24:19;5.48;80.17
75987;DHT22;64671;44.726;37.764;2023-11-21T06:25:23;5.48;80.43
75987;DHT22;64671;44.726;37.764;2023-11-21T06:26:27;5.49;80.38
75987;DHT22;64671;44.726;37.764;2023-11-21T06:27:31;5.49;80.41
75987;DHT22;64671;44.726;37.764;2023-11-21T06:28:34;5.48;80.27
75987;DHT22;64671;44.726;37.764;2023-11-21T06:29:38;5.48;80.47
75987;DHT22;64671;44.726;37.764;2023-11-21T06:30:42;5.50;80.65
75987;DHT22;64671;44.726;37.764;2023-11-21T06:31:46;5.49;80.61
75987;DHT22;64671;44.726;37.764;2023-11-21T06:32:50;5.49;80.17
75987;DHT22;64671;44.726;37.764;2023-11-21T06:33:53;5.47;79.78
75987;DHT22;64671;44.726;37.764;2023-11-21T06:34:57;5.45;79.54
75987;DHT22;64671;44.726;37.764;2023-11-21T06:36:02;5.46;79.88
75987;DHT22;64671;44.726;37.764;2023-11-21T06:37:05;5.46;79.99
75987;DHT22;64671;44.726;37.764;2023-11-21T06:38:08;5.47;79.96
75987;DHT22;64671;44.726;37.764;2023-11-21T06:39:12;5.48;80.34
75987;DHT22;64671;44.726;37.764;2023-11-21T06:40:18;5.50;80.22
75987;DHT22;64671;44.726;37.764;2023-11-21T06:41:21;5.50;80.16
75987;DHT22;64671;44.726;37.764;2023-11-21T06:42:25;5.48;79.98